METAR AND TAF INFORMATION
METAR FOR GCTS
ADDS - METARS form results

(2053 UTC 23 February 2020)
Data provider http://aviationweather.gov/metar/data/
 
METAR text: GCTS 232030Z 08011KT 0450 R07/1800N R25/1900N HZ NSC 28/01 Q1017 NOSIG
Conditions at: GCTS (TENERIFE SUR/REI, ES) observed 2030 UTC 23 February 2020
Temperature: 28.0°C (82°F)
Dewpoint: 1.0°C (34°F) [RH = 17%]
Pressure (altimeter): 30.03 inches Hg (1017.0 mb)
Winds: from the E (80 degrees) at 13 MPH (11 knots; 5.7 m/s)
Visibility: 0.28 miles (0.45 km)
Ceiling: at least 12,000 feet AGL
Clouds: sky clear below 12,000 feet AGL
Weather: HZ  (haze)

METAR text: GCTS 232000Z 09011KT 0500 R07/1900N HZ NSC 27/02 Q1017 NOSIG
Conditions at: GCTS (TENERIFE SUR/REI, ES) observed 2000 UTC 23 February 2020
Temperature: 27.0°C (81°F)
Dewpoint: 2.0°C (36°F) [RH = 20%]
Pressure (altimeter): 30.03 inches Hg (1017.0 mb)
Winds: from the E (90 degrees) at 13 MPH (11 knots; 5.7 m/s)
Visibility: 0.31 miles (0.50 km)
Ceiling: at least 12,000 feet AGL
Clouds: sky clear below 12,000 feet AGL
Weather: HZ  (haze)

Forecast for: GCTS (TENERIFE SUR/REI, ES)
Text: TAF GCTS 232000Z 2321/2421 08012KT 7000 NSC TX28/2414Z TN22/2406Z
Forecast period: 2100 UTC 23 February 2020 to 2100 UTC 24 February 2020
Forecast type: FROM: standard forecast or significant change
Winds: from the E (80 degrees) at 14 MPH (12 knots; 6.2 m/s)
Visibility: 4 miles (7 km)
Ceiling: unknown
Clouds: missing
Weather: no significant weather forecast for this period
Text: PROB40
Forecast period: 2100 UTC 23 February 2020 to 0600 UTC 24 February 2020
Forecast type: TEMPORARY: The following changes expected for less than half the time period
Visibility: 1.86 miles (2.99 km)
Ceiling: unknown
Clouds: missing
Weather: HZ  (haze)
Text: TEMPO 2321/2406 3000 HZ
Forecast period: 2100 UTC 23 February 2020 to 0600 UTC 24 February 2020
Forecast type: TEMPORARY: The following changes expected for less than half the time period
Visibility: 0.50 miles (0.80 km)
Ceiling: unknown
Clouds: missing
Weather: HZ  (haze)

 AIRPORT MAP

 RUNWAY INFORMATION
Runway 08 Runway length 10499 ft Runway width 148 ft
Runway elevation 187 ft Runway displaced threshold 0 ft Runway heading 69
Runway 26 Runway length 10499 ft Runway width 148 ft
Runway elevation 209 ft Runway displaced threshold 0 ft Runway heading 249

 AIRPORT FREQUENCIES
Type APP Name APP Frequency 120.3 MHZ
Type ATIS Name ATIS Frequency 118.675 MHZ
Type GND Name GND Frequency 121.9 MHZ
Type TWR Name TWR Frequency 119 MHZ

 AIRPORT NEAR NAVIGATION AIDS
Type NDB Name Tenerife Sur Frequency 317 KHZ
Type VOR-DME Name Tenerife Sur Frequency 116400 KHZ



Powered by Virtual Airlines Manager [v2.6.2]